Time;durP1;ratioP1;P1;durP2;ratioP2;P2;SDS_P1;SDS_P2;PMS_P1;PMS_P2;Temp;Humidity;BMP_temperature;BMP_pressure;BME280_temperature;BME280_humidity;BME280_pressure;Samples;Min_cycle;Max_cycle;Signal;HPM_P1;HPM_P2
2023/05/30 00:02:21;;;;;;;9.97;2.67;;;12.80;1.00;;;;;;4941707;29;20236;-85
2023/05/30 00:04:46;;;;;;;8.83;2.57;;;12.70;1.00;;;;;;4938788;29;20630;-84
2023/05/30 00:07:12;;;;;;;11.37;2.87;;;12.80;1.00;;;;;;4937930;29;20267;-83
2023/05/30 00:09:38;;;;;;;7.13;2.40;;;12.70;1.00;;;;;;4938950;29;20173;-86
2023/05/30 00:12:04;;;;;;;8.17;2.43;;;12.60;1.00;;;;;;4939323;29;20629;-81
2023/05/30 00:14:30;;;;;;;9.50;2.87;;;12.60;1.00;;;;;;4936601;29;20244;-83
2023/05/30 00:16:58;;;;;;;8.83;2.47;;;12.60;1.00;;;;;;4938862;29;20264;-83
2023/05/30 00:19:23;;;;;;;16.63;4.07;;;12.70;1.00;;;;;;4938043;29;20192;-83
2023/05/30 00:21:49;;;;;;;10.17;2.30;;;12.60;1.00;;;;;;4936033;29;20240;-84
2023/05/30 00:24:15;;;;;;;9.37;3.03;;;12.70;1.00;;;;;;4934914;29;20222;-83
2023/05/30 00:26:41;;;;;;;7.83;3.07;;;12.60;1.00;;;;;;4936599;29;20591;-80
2023/05/30 00:29:06;;;;;;;10.27;2.70;;;12.50;1.00;;;;;;4940486;29;20665;-79
2023/05/30 00:31:32;;;;;;;6.37;2.30;;;12.50;1.00;;;;;;4955556;29;20236;-81
2023/05/30 00:33:58;;;;;;;8.77;3.17;;;12.50;1.00;;;;;;4939623;29;20223;-82
2023/05/30 00:36:23;;;;;;;10.97;3.17;;;12.50;1.00;;;;;;4934917;29;20180;-81
2023/05/30 00:38:49;;;;;;;14.87;3.40;;;12.40;1.00;;;;;;4935127;29;20176;-86
2023/05/30 00:41:16;;;;;;;10.33;3.17;;;12.40;1.00;;;;;;4937052;29;20169;-81
2023/05/30 00:43:42;;;;;;;9.67;2.60;;;12.40;1.00;;;;;;4935812;29;20280;-82
2023/05/30 00:46:10;;;;;;;9.90;2.90;;;12.40;1.00;;;;;;4935506;29;20614;-81
2023/05/30 00:48:38;;;;;;;9.97;2.93;;;12.20;1.00;;;;;;4968294;28;20181;-81
2023/05/30 00:51:08;;;;;;;7.87;2.97;;;12.30;1.00;;;;;;4938403;29;20177;-82
2023/05/30 00:53:34;;;;;;;9.60;3.13;;;12.20;1.00;;;;;;4988786;28;20298;-81
2023/05/30 00:56:00;;;;;;;8.73;2.23;;;12.20;1.00;;;;;;4953176;29;20169;-84
2023/05/30 00:58:26;;;;;;;8.87;3.33;;;12.10;1.00;;;;;;4938058;29;20216;-86
2023/05/30 01:00:53;;;;;;;10.47;3.10;;;12.10;1.00;;;;;;4940188;29;20212;-83
2023/05/30 01:03:32;;;;;;;13.07;3.13;;;12.10;1.00;;;;;;4940629;29;20654;-81
2023/05/30 01:05:59;;;;;;;10.63;3.43;;;12.10;1.00;;;;;;4941208;29;20168;-83
2023/05/30 01:08:26;;;;;;;6.40;3.17;;;12.10;1.00;;;;;;4940821;29;20228;-81
2023/05/30 01:11:00;;;;;;;9.27;2.50;;;12.10;1.00;;;;;;4936002;29;20652;-83
2023/05/30 01:13:38;;;;;;;13.57;3.47;;;12.00;1.00;;;;;;4935730;29;20188;-85
2023/05/30 01:16:14;;;;;;;10.27;2.30;;;12.00;1.00;;;;;;4967164;28;20188;-81
2023/05/30 01:18:50;;;;;;;11.60;3.30;;;11.90;1.00;;;;;;4935684;29;20203;-84
2023/05/30 01:21:19;;;;;;;10.73;3.03;;;11.90;1.00;;;;;;4936075;29;20168;-82
2023/05/30 01:24:23;;;;;;;14.30;3.40;;;12.00;1.00;;;;;;4935052;29;20173;-82
2023/05/30 01:27:35;;;;;;;9.23;2.63;;;11.90;1.00;;;;;;4936021;29;20173;-85
2023/05/30 01:30:03;;;;;;;15.70;3.40;;;11.90;1.00;;;;;;4933607;29;20181;-84
2023/05/30 01:32:30;;;;;;;13.47;2.87;;;11.80;1.00;;;;;;4934759;29;20236;-81
2023/05/30 01:34:57;;;;;;;7.77;3.03;;;11.80;1.00;;;;;;4936094;29;20185;-82
2023/05/30 01:37:23;;;;;;;10.13;3.60;;;11.80;1.00;;;;;;4933683;29;20212;-85
2023/05/30 01:39:48;;;;;;;11.00;2.87;;;11.70;1.00;;;;;;4934676;29;20177;-83
2023/05/30 01:42:23;;;;;;;6.43;2.27;;;11.70;1.00;;;;;;4935242;29;20219;-82
2023/05/30 01:45:01;;;;;;;9.03;3.07;;;11.70;1.00;;;;;;4939415;29;20299;-83
2023/05/30 01:47:44;;;;;;;11.77;3.27;;;11.70;1.00;;;;;;4935089;29;20645;-85
2023/05/30 01:50:25;;;;;;;11.70;3.40;;;11.70;1.00;;;;;;4934780;29;20553;-83
2023/05/30 01:52:57;;;;;;;10.40;2.80;;;11.70;1.00;;;;;;4934735;29;20271;-82
2023/05/30 01:55:25;;;;;;;10.23;3.53;;;11.60;1.00;;;;;;4935691;29;20181;-84
2023/05/30 01:57:52;;;;;;;8.87;2.90;;;11.60;1.00;;;;;;4937010;29;20304;-81
2023/05/30 02:00:20;;;;;;;12.13;2.97;;;11.70;1.00;;;;;;4938777;29;20188;-82
2023/05/30 02:02:46;;;;;;;12.30;3.80;;;11.60;1.00;;;;;;4939848;29;20177;-85
2023/05/30 02:05:12;;;;;;;15.47;3.37;;;11.60;1.00;;;;;;4939271;29;20606;-85
2023/05/30 02:07:38;;;;;;;10.83;3.63;;;11.60;1.00;;;;;;4939298;29;20259;-86
2023/05/30 02:10:05;;;;;;;12.03;3.33;;;11.50;1.00;;;;;;4943155;29;20611;-82
2023/05/30 02:12:31;;;;;;;11.57;2.97;;;11.50;1.00;;;;;;4944416;29;20228;-81
2023/05/30 02:14:57;;;;;;;10.90;3.43;;;11.40;1.00;;;;;;4945273;29;20374;-81
2023/05/30 02:17:24;;;;;;;13.83;3.57;;;11.40;1.00;;;;;;4956835;29;20204;-82
2023/05/30 02:19:50;;;;;;;11.97;3.70;;;11.30;1.00;;;;;;4957796;28;20165;-81
2023/05/30 02:22:20;;;;;;;12.83;3.20;;;11.30;1.00;;;;;;4961861;28;20200;-83
2023/05/30 02:24:47;;;;;;;15.20;3.70;;;11.30;1.00;;;;;;4938398;29;20701;-85
2023/05/30 02:27:12;;;;;;;13.47;3.00;;;11.20;1.00;;;;;;4939318;29;20184;-83
2023/05/30 02:29:38;;;;;;;10.63;3.43;;;11.20;1.00;;;;;;4938953;29;20184;-82
2023/05/30 02:32:04;;;;;;;13.13;3.43;;;11.30;1.00;;;;;;4938646;29;20662;-81
2023/05/30 02:34:30;;;;;;;14.57;3.43;;;11.20;1.00;;;;;;4937960;29;20179;-83
2023/05/30 02:36:57;;;;;;;10.20;3.93;;;11.20;1.00;;;;;;4938304;29;20209;-81
2023/05/30 02:39:24;;;;;;;9.10;3.43;;;11.20;1.00;;;;;;4937950;29;20657;-82
2023/05/30 02:41:49;;;;;;;12.37;3.07;;;11.20;1.00;;;;;;4938118;29;20240;-80
2023/05/30 02:44:15;;;;;;;14.20;3.23;;;11.10;1.00;;;;;;4938502;29;20616;-82
2023/05/30 02:46:41;;;;;;;12.20;3.23;;;11.10;3.40;;;;;;4938666;29;20209;-84
2023/05/30 02:49:07;;;;;;;11.40;3.10;;;11.10;2.60;;;;;;4938495;28;20200;-82
2023/05/30 02:51:33;;;;;;;15.00;3.73;;;11.10;3.80;;;;;;4938817;29;20189;-84
2023/05/30 02:53:58;;;;;;;12.47;3.70;;;11.00;6.30;;;;;;4939036;29;20180;-83
2023/05/30 02:56:25;;;;;;;16.73;3.40;;;11.00;9.10;;;;;;4939411;29;20177;-83
2023/05/30 02:58:51;;;;;;;13.77;3.57;;;10.90;12.60;;;;;;4921618;29;20188;-85
2023/05/30 03:01:17;;;;;;;13.97;3.57;;;10.90;13.80;;;;;;4936560;29;20181;-84
2023/05/30 03:03:42;;;;;;;11.13;3.63;;;11.00;15.50;;;;;;4937701;29;20216;-82
2023/05/30 03:06:08;;;;;;;12.30;3.60;;;10.90;15.90;;;;;;4938886;29;20180;-84
2023/05/30 03:08:36;;;;;;;10.83;3.30;;;11.00;16.30;;;;;;4937680;29;20173;-84
2023/05/30 03:11:01;;;;;;;11.43;3.37;;;10.90;18.70;;;;;;4968193;28;20199;-81
2023/05/30 03:13:27;;;;;;;11.53;3.43;;;11.00;21.90;;;;;;4937705;29;20646;-82
2023/05/30 03:15:52;;;;;;;15.97;4.00;;;10.80;23.70;;;;;;4945869;29;20195;-83
2023/05/30 03:18:18;;;;;;;11.37;3.87;;;10.80;26.20;;;;;;4955799;29;20228;-81
2023/05/30 03:20:44;;;;;;;11.97;3.67;;;10.70;26.40;;;;;;4957094;29;20173;-83
2023/05/30 03:23:09;;;;;;;14.07;4.20;;;10.70;27.60;;;;;;4955385;29;20180;-81
2023/05/30 03:25:35;;;;;;;13.23;3.70;;;10.80;28.20;;;;;;4958407;29;20165;-82
2023/05/30 03:28:05;;;;;;;15.87;4.40;;;10.70;30.90;;;;;;4963674;29;20235;-81
2023/05/30 03:30:32;;;;;;;11.73;3.00;;;10.80;31.90;;;;;;4959715;28;20203;-84
2023/05/30 03:32:57;;;;;;;12.77;3.57;;;10.70;31.30;;;;;;4957071;29;20191;-84
2023/05/30 03:35:23;;;;;;;16.73;4.30;;;10.60;33.70;;;;;;4957401;29;20251;-86
2023/05/30 03:37:49;;;;;;;14.30;3.80;;;10.60;37.60;;;;;;4956686;28;20215;-81
2023/05/30 03:40:15;;;;;;;15.07;4.07;;;10.70;40.50;;;;;;4955626;29;20187;-86
2023/05/30 03:42:40;;;;;;;11.20;3.40;;;10.60;38.00;;;;;;4955777;29;20187;-82
2023/05/30 03:45:06;;;;;;;11.20;3.53;;;10.60;37.60;;;;;;4955505;29;20204;-85
2023/05/30 03:47:32;;;;;;;16.53;4.13;;;10.60;41.20;;;;;;4939285;29;20204;-84
2023/05/30 03:50:00;;;;;;;9.80;3.13;;;10.60;42.00;;;;;;4941096;29;20184;-80
2023/05/30 03:52:25;;;;;;;15.53;3.80;;;10.60;42.00;;;;;;4941521;29;20642;-80
2023/05/30 03:54:51;;;;;;;10.23;3.80;;;10.60;43.70;;;;;;4936209;29;20188;-81
2023/05/30 03:57:17;;;;;;;16.77;4.33;;;10.50;44.70;;;;;;4937865;29;20300;-82
2023/05/30 03:59:45;;;;;;;15.93;4.43;;;10.50;46.80;;;;;;4938481;29;20199;-84
2023/05/30 04:02:11;;;;;;;11.27;3.80;;;10.50;49.80;;;;;;4937791;29;20249;-81
2023/05/30 04:04:37;;;;;;;10.93;5.00;;;10.50;47.60;;;;;;4936555;29;20212;-83
2023/05/30 04:07:03;;;;;;;13.73;3.97;;;10.50;49.10;;;;;;4937069;29;20204;-84
2023/05/30 04:09:29;;;;;;;11.13;3.67;;;10.50;48.20;;;;;;4941188;29;20165;-80
2023/05/30 04:11:54;;;;;;;16.13;4.73;;;10.50;49.00;;;;;;4958883;28;20205;-79
2023/05/30 04:14:20;;;;;;;11.97;4.33;;;10.50;50.60;;;;;;4954010;28;20287;-81
2023/05/30 04:16:46;;;;;;;14.10;3.97;;;10.50;50.40;;;;;;4947625;29;20227;-82
2023/05/30 04:19:11;;;;;;;11.87;4.57;;;10.50;49.70;;;;;;4940738;29;20191;-83
2023/05/30 04:22:20;;;;;;;15.97;4.67;;;10.50;50.50;;;;;;4938180;29;20204;-86
2023/05/30 04:24:46;;;;;;;16.47;4.10;;;10.50;51.40;;;;;;4938020;29;20169;-84
2023/05/30 04:27:13;;;;;;;13.70;4.60;;;10.80;47.20;;;;;;4938233;29;20188;-81
2023/05/30 04:29:40;;;;;;;21.37;4.80;;;10.70;46.00;;;;;;4937967;29;20312;-81
2023/05/30 04:32:06;;;;;;;18.53;5.33;;;10.60;45.10;;;;;;4938585;29;20168;-80
2023/05/30 04:34:32;;;;;;;13.70;4.40;;;10.70;44.70;;;;;;4939032;29;20271;-84
2023/05/30 04:36:58;;;;;;;15.13;4.00;;;10.70;45.30;;;;;;4938670;29;20213;-82
2023/05/30 04:39:23;;;;;;;19.60;4.30;;;10.70;43.60;;;;;;4936315;29;20173;-81
2023/05/30 04:41:54;;;;;;;14.07;4.60;;;10.70;42.60;;;;;;4938067;29;20173;-81
2023/05/30 04:44:20;;;;;;;13.00;4.03;;;10.70;42.40;;;;;;4936556;29;20595;-81
2023/05/30 04:46:46;;;;;;;12.73;4.27;;;10.80;41.00;;;;;;4936488;29;20181;-85
2023/05/30 04:49:16;;;;;;;13.03;4.10;;;10.80;38.00;;;;;;4939910;29;20268;-83
2023/05/30 04:51:45;;;;;;;15.90;5.13;;;10.80;42.80;;;;;;4937434;29;20546;-83
2023/05/30 04:54:12;;;;;;;14.97;4.00;;;10.60;41.30;;;;;;4941636;29;20184;-83
2023/05/30 04:56:39;;;;;;;21.13;5.47;;;10.70;41.30;;;;;;4939776;29;20284;-84
2023/05/30 04:59:06;;;;;;;16.93;4.23;;;10.70;45.80;;;;;;4955323;29;20228;-80
2023/05/30 05:01:35;;;;;;;20.43;5.40;;;10.80;43.80;;;;;;4952382;29;20161;-80
2023/05/30 05:04:01;;;;;;;18.83;5.17;;;10.70;46.20;;;;;;4952716;29;20200;-81
2023/05/30 05:06:27;;;;;;;22.07;5.00;;;10.70;43.20;;;;;;4953700;29;20177;-83
2023/05/30 05:08:55;;;;;;;19.30;4.57;;;10.80;40.40;;;;;;4952886;29;20181;-81
2023/05/30 05:11:21;;;;;;;17.47;4.30;;;10.80;39.80;;;;;;4953169;29;20173;-79
2023/05/30 05:13:47;;;;;;;19.40;5.00;;;10.90;38.80;;;;;;4952502;29;20208;-83
2023/05/30 05:16:13;;;;;;;16.80;4.63;;;10.80;38.10;;;;;;4942284;29;20211;-81
2023/05/30 05:18:38;;;;;;;14.67;5.20;;;10.90;35.40;;;;;;4951677;29;20232;-83
2023/05/30 05:21:06;;;;;;;16.60;4.77;;;11.00;37.20;;;;;;4948760;29;20181;-81
2023/05/30 05:23:32;;;;;;;10.83;4.67;;;10.90;35.10;;;;;;4953706;29;20169;-82
2023/05/30 05:26:00;;;;;;;17.33;4.73;;;11.10;32.60;;;;;;4955598;29;20172;-83
2023/05/30 05:28:25;;;;;;;15.87;4.67;;;11.00;31.40;;;;;;4948368;29;20180;-79
2023/05/30 05:30:51;;;;;;;16.87;4.80;;;11.10;28.30;;;;;;4955147;29;20240;-82
2023/05/30 05:33:17;;;;;;;12.07;5.20;;;11.10;26.60;;;;;;4955487;29;20173;-81
2023/05/30 05:35:46;;;;;;;12.80;4.63;;;11.00;25.50;;;;;;4955926;29;20185;-82
2023/05/30 05:38:12;;;;;;;16.00;4.90;;;11.10;26.20;;;;;;4943788;29;20200;-83
2023/05/30 05:40:39;;;;;;;14.23;4.40;;;11.10;26.90;;;;;;4939367;29;20173;-82
2023/05/30 05:43:05;;;;;;;16.97;5.37;;;11.20;27.60;;;;;;4938402;29;20177;-83
2023/05/30 05:45:31;;;;;;;20.67;5.43;;;11.40;24.50;;;;;;4941325;29;20193;-85
2023/05/30 05:48:00;;;;;;;11.77;4.87;;;11.30;21.70;;;;;;4941075;29;20196;-84
2023/05/30 05:50:32;;;;;;;12.30;4.50;;;11.20;21.50;;;;;;4944378;29;20173;-85
2023/05/30 05:52:58;;;;;;;15.17;5.17;;;11.30;21.10;;;;;;4947446;29;20197;-85
2023/05/30 05:55:27;;;;;;;10.77;4.07;;;11.30;24.10;;;;;;4961584;28;20150;-80
2023/05/30 05:57:54;;;;;;;13.53;4.30;;;11.30;20.60;;;;;;4959775;28;20211;-84
2023/05/30 06:00:30;;;;;;;16.63;4.90;;;11.30;18.60;;;;;;4961826;28;20161;-83
2023/05/30 06:02:59;;;;;;;18.23;4.70;;;11.40;17.40;;;;;;4957491;29;20165;-82
2023/05/30 06:06:13;;;;;;;14.23;4.03;;;11.50;13.60;;;;;;4957382;29;20154;-80
2023/05/30 06:09:16;;;;;;;11.33;4.17;;;11.60;11.60;;;;;;4946272;29;20183;-86
2023/05/30 06:11:44;;;;;;;20.97;4.77;;;11.50;11.30;;;;;;4937883;29;20188;-82
2023/05/30 06:14:12;;;;;;;21.70;5.50;;;11.50;14.40;;;;;;4937859;29;20243;-82
2023/05/30 06:16:38;;;;;;;14.90;4.77;;;11.60;14.00;;;;;;4938711;29;20153;-82
2023/05/30 06:19:04;;;;;;;13.23;4.67;;;11.80;5.80;;;;;;4921712;29;20548;-81
2023/05/30 06:21:30;;;;;;;13.83;4.23;;;11.80;1.90;;;;;;4939774;29;20626;-81
2023/05/30 06:23:56;;;;;;;12.07;5.20;;;12.00;1.00;;;;;;4938316;29;20265;-82
2023/05/30 06:26:23;;;;;;;16.00;4.97;;;11.80;1.00;;;;;;4938388;29;20177;-81
2023/05/30 06:28:52;;;;;;;14.63;4.77;;;11.80;2.30;;;;;;4939005;29;20634;-80
2023/05/30 06:31:17;;;;;;;17.53;5.53;;;11.70;1.00;;;;;;4936711;29;20212;-81
2023/05/30 06:33:43;;;;;;;15.90;4.97;;;11.80;1.00;;;;;;4938540;29;20668;-85
2023/05/30 06:36:10;;;;;;;14.80;4.70;;;11.90;1.00;;;;;;4937737;29;20173;-84
2023/05/30 06:38:36;;;;;;;18.83;5.23;;;11.80;1.00;;;;;;4938126;29;20219;-84
2023/05/30 06:41:01;;;;;;;17.40;5.90;;;11.80;1.00;;;;;;4938863;29;20157;-85
2023/05/30 06:43:27;;;;;;;15.07;5.53;;;11.80;1.00;;;;;;4938651;29;20181;-85
2023/05/30 06:45:53;;;;;;;18.00;4.93;;;11.90;1.00;;;;;;4938814;29;20179;-83
2023/05/30 06:48:19;;;;;;;18.87;5.37;;;11.90;1.00;;;;;;4939120;29;20177;-85
2023/05/30 06:50:51;;;;;;;18.13;5.13;;;12.00;1.00;;;;;;4938363;29;20177;-85
2023/05/30 06:53:18;;;;;;;13.83;5.23;;;12.00;1.00;;;;;;4938397;29;20181;-83
2023/05/30 06:55:44;;;;;;;15.70;5.10;;;12.10;1.00;;;;;;4937733;29;20229;-84
2023/05/30 06:58:13;;;;;;;14.67;5.47;;;12.30;1.00;;;;;;4939450;29;20573;-85
2023/05/30 07:00:39;;;;;;;13.13;5.13;;;12.40;1.00;;;;;;4938351;29;20322;-84
2023/05/30 07:03:05;;;;;;;15.90;5.43;;;12.30;1.00;;;;;;4942959;29;20675;-83
2023/05/30 07:05:30;;;;;;;13.00;5.43;;;12.30;1.00;;;;;;4956851;28;20250;-83
2023/05/30 07:07:56;;;;;;;14.57;4.93;;;12.40;1.00;;;;;;4945318;29;20534;-82
2023/05/30 07:10:22;;;;;;;16.17;5.33;;;12.50;1.00;;;;;;4942408;29;20634;-81
2023/05/30 07:12:47;;;;;;;19.87;5.97;;;12.50;1.00;;;;;;4941724;29;20189;-83
2023/05/30 07:15:13;;;;;;;16.63;5.40;;;12.60;1.00;;;;;;4941833;29;20528;-81
2023/05/30 07:17:39;;;;;;;14.33;6.27;;;12.60;1.00;;;;;;4939412;29;20216;-82
2023/05/30 07:20:08;;;;;;;10.87;4.90;;;12.70;1.00;;;;;;4936790;29;20272;-83
2023/05/30 07:22:34;;;;;;;14.23;5.37;;;12.60;1.00;;;;;;4938549;29;20212;-83
2023/05/30 07:24:59;;;;;;;13.67;5.60;;;12.60;1.00;;;;;;4941837;29;20185;-84
2023/05/30 07:27:26;;;;;;;11.67;5.00;;;12.70;1.00;;;;;;4956867;29;20664;-84
2023/05/30 07:29:52;;;;;;;10.67;5.47;;;12.80;1.00;;;;;;4950682;29;20181;-83
2023/05/30 07:32:17;;;;;;;13.70;5.00;;;12.90;1.00;;;;;;4941914;29;20184;-82
2023/05/30 07:34:45;;;;;;;14.53;5.40;;;13.10;1.00;;;;;;4940029;29;20630;-83
2023/05/30 07:37:11;;;;;;;13.87;5.43;;;13.10;1.00;;;;;;4938677;29;20299;-83
2023/05/30 07:39:36;;;;;;;11.90;4.87;;;13.00;1.00;;;;;;4937401;29;20685;-81
2023/05/30 07:42:02;;;;;;;11.33;5.17;;;13.10;1.00;;;;;;4936696;29;20177;-84
2023/05/30 07:44:28;;;;;;;11.40;5.17;;;13.20;1.00;;;;;;4937568;29;20275;-82
2023/05/30 07:46:53;;;;;;;12.80;4.50;;;13.20;1.00;;;;;;4936497;29;20265;-82
2023/05/30 07:49:20;;;;;;;13.40;4.77;;;13.20;1.00;;;;;;4936484;29;20178;-83
2023/05/30 07:51:46;;;;;;;12.33;4.60;;;13.30;1.00;;;;;;4937654;29;20224;-83
2023/05/30 07:54:12;;;;;;;9.70;4.70;;;13.30;1.00;;;;;;4935317;29;20282;-82
2023/05/30 07:56:37;;;;;;;12.77;5.23;;;13.30;1.00;;;;;;4937398;29;20264;-84
2023/05/30 07:59:03;;;;;;;13.37;4.43;;;13.40;1.00;;;;;;4937571;29;20757;-85
2023/05/30 08:01:29;;;;;;;14.43;5.53;;;13.50;1.00;;;;;;4937429;29;20177;-83
2023/05/30 08:03:54;;;;;;;16.20;5.07;;;13.50;1.00;;;;;;4934918;29;20243;-82
2023/05/30 08:06:20;;;;;;;12.30;5.57;;;13.60;1.00;;;;;;4935972;29;20213;-84
2023/05/30 08:08:46;;;;;;;14.70;4.47;;;13.70;1.00;;;;;;4937625;29;20572;-82
2023/05/30 08:11:15;;;;;;;11.87;5.23;;;13.60;1.00;;;;;;4935080;29;20240;-83
2023/05/30 08:13:43;;;;;;;12.73;4.87;;;13.70;1.00;;;;;;4937612;29;20220;-84
2023/05/30 08:16:17;;;;;;;12.27;4.80;;;13.70;1.00;;;;;;5043926;27;1545381;-84
2023/05/30 08:18:45;;;;;;;13.13;4.60;;;13.80;1.00;;;;;;5073078;28;20199;-83
2023/05/30 08:21:11;;;;;;;16.03;4.90;;;13.90;1.00;;;;;;5074999;28;20184;-83
2023/05/30 08:23:37;;;;;;;11.37;4.43;;;14.10;1.00;;;;;;5091326;28;20179;-84
2023/05/30 08:26:03;;;;;;;17.23;5.60;;;14.20;1.00;;;;;;5072832;28;20167;-84
2023/05/30 08:28:28;;;;;;;10.47;4.60;;;14.20;1.00;;;;;;5091515;28;20173;-84
2023/05/30 08:30:54;;;;;;;9.33;4.50;;;14.20;1.00;;;;;;5093776;28;20738;-82
2023/05/30 08:33:21;;;;;;;13.70;5.13;;;14.10;1.00;;;;;;5091630;28;20642;-86
2023/05/30 08:35:47;;;;;;;15.03;4.30;;;14.00;1.00;;;;;;5090552;28;20218;-84
2023/05/30 08:38:13;;;;;;;10.60;4.57;;;14.10;1.00;;;;;;5072790;28;20683;-85
2023/05/30 08:40:45;;;;;;;13.60;3.93;;;14.20;1.00;;;;;;5073163;28;20263;-84
2023/05/30 08:43:12;;;;;;;13.60;4.53;;;14.30;1.00;;;;;;5072627;28;20168;-83
2023/05/30 08:45:38;;;;;;;9.97;4.43;;;14.10;1.00;;;;;;5059513;28;20201;-83
2023/05/30 08:48:06;;;;;;;11.37;4.83;;;14.20;1.00;;;;;;5072702;28;20175;-83
2023/05/30 08:50:35;;;;;;;10.93;4.87;;;14.40;1.00;;;;;;5052779;28;20648;-84
2023/05/30 08:53:08;;;;;;;9.30;3.70;;;14.40;1.00;;;;;;5052639;28;20205;-83
2023/05/30 08:55:54;;;;;;;12.30;4.17;;;14.40;1.00;;;;;;5052380;28;20255;-85
2023/05/30 08:58:26;;;;;;;8.63;4.10;;;14.30;1.00;;;;;;5070802;28;20622;-84
2023/05/30 09:00:53;;;;;;;13.37;4.73;;;14.40;1.00;;;;;;5070742;28;20165;-83
2023/05/30 09:03:20;;;;;;;12.13;4.77;;;14.50;1.00;;;;;;5076210;28;20645;-84
2023/05/30 09:05:46;;;;;;;16.37;4.67;;;14.60;1.00;;;;;;5060809;28;20188;-84
2023/05/30 09:08:14;;;;;;;10.50;4.63;;;14.70;1.00;;;;;;5070560;28;20230;-82
2023/05/30 09:10:48;;;;;;;9.67;4.63;;;14.80;1.00;;;;;;5053024;28;20185;-83
2023/05/30 09:13:16;;;;;;;10.33;5.03;;;14.80;1.00;;;;;;5051192;28;20186;-86
2023/05/30 09:15:44;;;;;;;12.43;4.20;;;14.80;1.00;;;;;;5052835;28;20653;-83
2023/05/30 09:18:10;;;;;;;10.50;4.67;;;15.00;1.00;;;;;;5070489;28;20172;-84
2023/05/30 09:20:39;;;;;;;9.40;4.63;;;15.00;1.00;;;;;;5054571;28;20175;-83
2023/05/30 09:23:07;;;;;;;13.20;4.97;;;15.20;1.00;;;;;;5074082;28;20286;-83
2023/05/30 09:25:47;;;;;;;13.03;4.53;;;15.10;1.00;;;;;;5069446;28;20630;-83
2023/05/30 09:28:14;;;;;;;16.03;4.97;;;14.90;99.90;;;;;;5057423;28;20170;-84
2023/05/30 09:30:56;;;;;;;8.90;4.87;;;15.10;99.90;;;;;;5056951;28;20169;-84
2023/05/30 09:33:22;;;;;;;14.23;5.00;;;15.20;99.90;;;;;;5038888;28;20316;-85
2023/05/30 09:35:56;;;;;;;14.63;5.40;;;15.30;1.00;;;;;;5038755;28;20254;-83
2023/05/30 09:38:24;;;;;;;12.30;5.37;;;15.40;99.90;;;;;;5038218;28;20201;-84
2023/05/30 09:40:55;;;;;;;9.70;4.50;;;15.60;99.90;;;;;;5060618;28;20193;-82
2023/05/30 09:43:52;;;;;;;10.63;5.70;;;15.60;99.90;;;;;;5049131;28;20169;-85
2023/05/30 09:46:56;;;;;;;10.90;5.17;;;15.50;99.90;;;;;;5057217;28;20263;-83
2023/05/30 09:49:25;;;;;;;12.80;5.47;;;15.60;1.00;;;;;;5057703;28;20164;-83
2023/05/30 09:51:54;;;;;;;11.50;5.00;;;15.50;99.90;;;;;;5040680;28;20208;-84
2023/05/30 09:54:20;;;;;;;12.37;5.13;;;15.70;1.00;;;;;;5039318;28;20207;-82
2023/05/30 09:56:45;;;;;;;10.20;5.00;;;15.90;99.90;;;;;;5038512;28;20565;-85
2023/05/30 09:59:13;;;;;;;12.83;5.33;;;15.90;99.90;;;;;;5057053;28;20160;-84
2023/05/30 10:01:42;;;;;;;10.93;5.17;;;15.90;99.90;;;;;;5038188;28;20181;-83
2023/05/30 10:04:16;;;;;;;20.93;7.37;;;16.00;99.90;;;;;;5037737;28;20511;-83
2023/05/30 10:06:47;;;;;;;11.93;5.83;;;16.20;99.90;;;;;;5038799;28;20513;-83
2023/05/30 10:09:14;;;;;;;11.07;5.60;;;16.00;99.90;;;;;;5056716;28;20187;-83
2023/05/30 10:11:41;;;;;;;17.10;5.00;;;16.10;99.90;;;;;;5057041;28;20165;-82
2023/05/30 10:14:08;;;;;;;9.57;5.60;;;16.10;99.90;;;;;;5055783;28;20173;-83
2023/05/30 10:17:01;;;;;;;11.33;6.20;;;15.90;99.90;;;;;;5058264;28;20199;-83
2023/05/30 10:19:42;;;;;;;11.73;5.70;;;15.90;99.90;;;;;;5063671;28;20185;-82
2023/05/30 10:22:10;;;;;;;10.03;5.80;;;16.10;99.90;;;;;;5051325;28;20615;-83
2023/05/30 10:24:37;;;;;;;14.07;5.73;;;16.20;99.90;;;;;;5046813;28;20172;-82
2023/05/30 10:27:14;;;;;;;11.37;6.63;;;16.10;99.90;;;;;;5038944;28;20276;-83
2023/05/30 10:29:47;;;;;;;11.07;5.53;;;16.10;99.90;;;;;;5056673;28;20290;-84
2023/05/30 10:32:21;;;;;;;11.07;5.97;;;16.20;99.90;;;;;;5056094;28;20238;-83
2023/05/30 10:35:01;;;;;;;12.87;6.20;;;16.10;99.90;;;;;;5037846;28;20258;-84
2023/05/30 10:37:27;;;;;;;11.67;6.87;;;16.20;99.90;;;;;;5057036;28;20177;-83
2023/05/30 10:40:19;;;;;;;12.43;6.40;;;16.10;1.00;;;;;;5058470;28;20180;-83
2023/05/30 10:43:11;;;;;;;13.93;6.97;;;16.30;1.00;;;;;;5060965;28;20164;-83
2023/05/30 10:46:04;;;;;;;13.43;6.87;;;16.40;1.00;;;;;;5056117;28;20211;-82
2023/05/30 10:48:43;;;;;;;11.33;6.00;;;16.60;1.00;;;;;;5062472;28;20176;-84
2023/05/30 10:51:13;;;;;;;13.83;6.43;;;16.70;99.90;;;;;;5037834;28;20200;-83
2023/05/30 10:53:44;;;;;;;10.77;6.70;;;16.80;99.90;;;;;;5038163;28;20242;-84
2023/05/30 10:56:32;;;;;;;9.33;6.47;;;17.00;99.90;;;;;;5057106;28;20239;-84
2023/05/30 10:59:00;;;;;;;11.87;6.80;;;16.80;99.90;;;;;;5037385;28;20173;-82
2023/05/30 11:01:30;;;;;;;11.83;6.97;;;16.80;99.90;;;;;;5055532;28;20265;-82
2023/05/30 11:04:03;;;;;;;12.80;6.67;;;16.90;99.90;;;;;;5055443;28;20165;-82
2023/05/30 11:06:38;;;;;;;13.50;6.57;;;17.10;99.90;;;;;;5055785;28;20161;-84
2023/05/30 11:09:15;;;;;;;10.03;6.90;;;17.00;99.90;;;;;;5046982;28;20644;-83
2023/05/30 11:11:47;;;;;;;16.97;7.80;;;16.90;99.90;;;;;;5068755;28;20232;-83
2023/05/30 11:14:15;;;;;;;12.67;7.03;;;17.10;99.90;;;;;;5067935;28;20181;-85
2023/05/30 11:16:49;;;;;;;16.00;7.40;;;17.10;99.90;;;;;;5067158;28;20189;-80
2023/05/30 11:19:15;;;;;;;10.93;6.67;;;17.10;99.90;;;;;;5046507;28;20202;-84
2023/05/30 11:21:53;;;;;;;15.10;6.83;;;17.00;99.90;;;;;;5064762;28;20172;-82
2023/05/30 11:24:20;;;;;;;11.57;7.20;;;16.80;1.00;;;;;;5049920;28;20192;-83
2023/05/30 11:27:06;;;;;;;13.40;8.17;;;16.90;1.00;;;;;;5059882;28;20192;-83
2023/05/30 11:29:35;;;;;;;12.47;6.50;;;16.80;1.00;;;;;;5060529;28;20188;-82
2023/05/30 11:32:01;;;;;;;13.97;8.00;;;17.00;1.00;;;;;;5058797;28;20168;-83
2023/05/30 11:34:28;;;;;;;13.70;7.87;;;17.00;1.00;;;;;;5058978;28;20225;-84
2023/05/30 11:36:55;;;;;;;13.43;8.17;;;17.00;1.00;;;;;;5058089;28;20174;-82
2023/05/30 11:39:22;;;;;;;14.73;6.70;;;17.10;99.90;;;;;;5056741;28;20167;-83
2023/05/30 11:41:48;;;;;;;23.33;7.13;;;17.50;99.90;;;;;;5036364;28;20185;-82
2023/05/30 11:44:18;;;;;;;13.30;7.73;;;17.70;99.90;;;;;;5054676;28;20184;-84
2023/05/30 11:46:44;;;;;;;11.50;7.40;;;17.70;99.90;;;;;;5052286;28;20190;-84
2023/05/30 11:49:09;;;;;;;11.57;6.53;;;17.90;99.90;;;;;;5033413;28;20206;-83
2023/05/30 11:51:38;;;;;;;14.80;7.43;;;17.90;99.90;;;;;;5051289;28;20182;-83
2023/05/30 11:54:06;;;;;;;13.73;7.17;;;17.60;99.90;;;;;;5034875;28;20202;-84
2023/05/30 11:56:31;;;;;;;12.70;7.10;;;17.70;99.90;;;;;;5034554;28;20593;-83
2023/05/30 11:58:58;;;;;;;15.13;9.50;;;17.80;99.90;;;;;;5051840;28;20202;-82
2023/05/30 12:01:24;;;;;;;11.70;7.30;;;17.80;99.90;;;;;;5034326;28;20231;-82
2023/05/30 12:03:50;;;;;;;13.80;7.90;;;17.90;99.90;;;;;;5033824;28;20629;-85
2023/05/30 12:06:16;;;;;;;13.87;8.20;;;17.90;99.90;;;;;;5034463;28;20186;-84
2023/05/30 12:08:47;;;;;;;9.93;7.50;;;18.00;99.90;;;;;;5049964;28;20243;-85
2023/05/30 12:11:13;;;;;;;16.10;8.87;;;18.00;99.90;;;;;;5060512;28;20255;-83
2023/05/30 12:13:40;;;;;;;13.00;8.40;;;17.90;99.90;;;;;;5046855;28;20179;-85
2023/05/30 12:16:07;;;;;;;15.97;8.30;;;18.10;99.90;;;;;;5062824;28;21221;-84
2023/05/30 12:18:33;;;;;;;13.87;7.83;;;18.30;99.90;;;;;;5054423;28;20232;-84
2023/05/30 12:21:00;;;;;;;12.03;8.43;;;18.20;99.90;;;;;;5033616;28;20172;-84
2023/05/30 12:23:26;;;;;;;12.80;7.80;;;18.20;99.90;;;;;;5017573;28;20184;-85
2023/05/30 12:25:53;;;;;;;12.67;7.30;;;18.40;99.90;;;;;;5031341;28;20186;-84
2023/05/30 12:28:21;;;;;;;10.70;6.83;;;18.40;99.90;;;;;;5033675;28;20161;-84
2023/05/30 12:30:50;;;;;;;13.57;7.27;;;18.40;99.90;;;;;;5034364;28;20172;-81
2023/05/30 12:33:24;;;;;;;13.97;8.00;;;18.30;99.90;;;;;;5031153;28;20602;-85
2023/05/30 12:35:54;;;;;;;15.07;8.63;;;18.50;99.90;;;;;;5050232;28;20200;-86
2023/05/30 12:38:21;;;;;;;11.30;7.03;;;18.70;99.90;;;;;;5053565;28;20176;-85
2023/05/30 12:40:50;;;;;;;13.10;8.00;;;18.90;99.90;;;;;;5036040;28;20207;-84
2023/05/30 12:43:26;;;;;;;10.63;8.40;;;18.90;99.90;;;;;;5032452;28;20345;-85
2023/05/30 12:45:51;;;;;;;15.87;8.43;;;18.70;99.90;;;;;;5051948;28;20209;-88
2023/05/30 12:48:18;;;;;;;13.30;8.03;;;18.70;99.90;;;;;;5054682;28;20176;-86
2023/05/30 12:50:45;;;;;;;12.67;8.10;;;18.60;99.90;;;;;;5036597;28;20169;-87
2023/05/30 12:53:13;;;;;;;12.80;8.37;;;18.60;99.90;;;;;;5055285;28;20179;-83